Time;durP1;ratioP1;P1;durP2;ratioP2;P2;SDS_P1;SDS_P2;PMS_P1;PMS_P2;Temp;Humidity;BMP_temperature;BMP_pressure;BME280_temperature;BME280_humidity;BME280_pressure;Samples;Min_cycle;Max_cycle;Signal;HPM_P1;HPM_P2
2024/03/12 00:00:58;;;;;;;;;;;10.30;99.90;;;;;;5050446;28;19913;-75
2024/03/12 00:03:27;;;;;;;;;;;10.30;99.90;;;;;;5050845;28;20065;-73
2024/03/12 00:05:59;;;;;;;;;;;10.30;99.90;;;;;;5051505;28;20298;-74
2024/03/12 00:08:25;;;;;;;;;;;10.30;99.90;;;;;;5051771;28;19955;-75
2024/03/12 00:10:50;;;;;;;;;;;10.20;99.90;;;;;;5051928;28;19940;-75
2024/03/12 00:13:16;;;;;;;;;;;10.30;99.90;;;;;;5049949;28;20323;-75
2024/03/12 00:15:41;;;;;;;;;;;10.30;99.90;;;;;;5048568;28;20006;-75
2024/03/12 00:18:07;;;;;;;;;;;10.20;99.90;;;;;;5048485;28;19909;-74
2024/03/12 00:20:39;;;;;;;;;;;10.20;99.90;;;;;;5049838;28;20285;-74
2024/03/12 00:23:06;;;;;;;;;;;10.20;99.90;;;;;;5048353;28;20381;-74
2024/03/12 00:25:32;;;;;;;;;;;10.20;99.90;;;;;;5048381;28;19908;-74
2024/03/12 00:27:58;;;;;;;;;;;10.20;99.90;;;;;;5048263;28;19931;-74
2024/03/12 00:30:25;;;;;;;;;;;10.20;99.90;;;;;;5048350;28;19916;-74
2024/03/12 00:32:51;;;;;;;;;;;10.10;99.90;;;;;;5052144;28;19920;-74
2024/03/12 00:35:17;;;;;;;;;;;10.10;99.90;;;;;;5053362;28;19938;-74
2024/03/12 00:37:42;;;;;;;;;;;10.10;99.90;;;;;;5052165;28;20436;-74
2024/03/12 00:40:11;;;;;;;;;;;10.00;99.90;;;;;;5052096;28;19915;-75
2024/03/12 00:42:40;;;;;;;;;;;9.90;99.90;;;;;;5053349;28;20026;-74
2024/03/12 00:45:13;;;;;;;;;;;9.90;99.90;;;;;;5052379;28;20369;-74
2024/03/12 00:47:38;;;;;;;;;;;10.00;99.90;;;;;;5052353;28;19908;-75
2024/03/12 00:50:04;;;;;;;;;;;10.00;99.90;;;;;;5051947;28;19909;-74
2024/03/12 00:52:30;;;;;;;;;;;10.00;99.90;;;;;;5053346;28;20695;-74
2024/03/12 00:54:56;;;;;;;;;;;10.10;99.90;;;;;;5051921;28;19996;-75
2024/03/12 00:57:22;;;;;;;;;;;10.00;99.90;;;;;;5051812;28;19962;-74
2024/03/12 00:59:48;;;;;;;;;;;10.00;99.90;;;;;;5053207;28;19999;-74
2024/03/12 01:02:13;;;;;;;;;;;9.90;99.90;;;;;;5052929;28;20028;-74
2024/03/12 01:04:39;;;;;;;;;;;9.80;99.90;;;;;;5052952;28;19961;-75
2024/03/12 01:07:07;;;;;;;;;;;9.70;99.90;;;;;;5053009;28;19904;-74
2024/03/12 01:09:39;;;;;;;;;;;9.70;99.90;;;;;;5052885;28;19948;-74
2024/03/12 01:12:06;;;;;;;;;;;9.60;99.90;;;;;;5051745;28;19904;-74
2024/03/12 01:14:31;;;;;;;;;;;9.50;99.90;;;;;;5052806;28;19908;-75
2024/03/12 01:16:57;;;;;;;;;;;9.50;99.90;;;;;;5052657;28;19909;-74
2024/03/12 01:19:23;;;;;;;;;;;9.50;99.90;;;;;;5052805;28;20460;-74
2024/03/12 01:21:51;;;;;;;;;;;9.50;99.90;;;;;;5052875;28;20003;-74
2024/03/12 01:24:16;;;;;;;;;;;9.40;99.90;;;;;;5052747;28;20450;-75
2024/03/12 01:26:42;;;;;;;;;;;9.60;99.90;;;;;;5052553;28;19913;-74
2024/03/12 01:29:07;;;;;;;;;;;9.60;99.90;;;;;;5052503;28;19908;-74
2024/03/12 01:31:33;;;;;;;;;;;9.60;99.90;;;;;;5052505;28;20355;-75
2024/03/12 01:33:58;;;;;;;;;;;9.60;99.90;;;;;;5051228;28;19917;-75
2024/03/12 01:36:34;;;;;;;;;;;9.60;99.90;;;;;;5052492;28;20019;-74
2024/03/12 01:39:03;;;;;;;;;;;9.60;99.90;;;;;;5052389;28;19999;-74
2024/03/12 01:41:31;;;;;;;;;;;9.60;99.90;;;;;;5051157;28;19917;-73
2024/03/12 01:44:02;;;;;;;;;;;9.70;99.90;;;;;;5049661;28;19912;-74
2024/03/12 01:46:32;;;;;;;;;;;9.70;99.90;;;;;;5050885;28;20419;-73
2024/03/12 01:48:58;;;;;;;;;;;9.70;99.90;;;;;;5052270;28;19912;-75
2024/03/12 01:51:27;;;;;;;;;;;9.60;99.90;;;;;;5052166;28;20497;-74
2024/03/12 01:53:56;;;;;;;;;;;9.60;99.90;;;;;;5051942;28;19912;-75
2024/03/12 01:56:22;;;;;;;;;;;9.50;99.90;;;;;;5051979;28;19905;-74
2024/03/12 01:58:47;;;;;;;;;;;9.50;99.90;;;;;;5051062;28;19911;-75
2024/03/12 02:01:13;;;;;;;;;;;9.40;99.90;;;;;;5050224;28;19959;-75
2024/03/12 02:03:38;;;;;;;;;;;9.30;99.90;;;;;;5051834;28;19908;-75
2024/03/12 02:06:07;;;;;;;;;;;9.30;99.90;;;;;;5050616;28;19915;-75
2024/03/12 02:08:33;;;;;;;;;;;9.30;99.90;;;;;;5050576;28;20003;-74
2024/03/12 02:10:58;;;;;;;;;;;9.30;99.90;;;;;;5050567;28;20019;-74
2024/03/12 02:13:24;;;;;;;;;;;9.30;99.90;;;;;;5050682;28;19909;-73
2024/03/12 02:15:49;;;;;;;;;;;9.30;99.90;;;;;;5057227;28;19941;-75
2024/03/12 02:18:15;;;;;;;;;;;9.30;99.90;;;;;;5056098;28;19905;-74
2024/03/12 02:20:40;;;;;;;;;;;9.30;99.90;;;;;;5051506;28;19908;-74
2024/03/12 02:23:06;;;;;;;;;;;9.40;99.90;;;;;;5051927;28;19947;-74
2024/03/12 02:25:31;;;;;;;;;;;9.30;99.90;;;;;;5050309;28;20007;-74
2024/03/12 02:27:57;;;;;;;;;;;9.40;99.90;;;;;;5050324;28;20015;-75
2024/03/12 02:30:22;;;;;;;;;;;9.40;99.90;;;;;;5050192;28;19919;-74
2024/03/12 02:32:48;;;;;;;;;;;9.40;99.90;;;;;;5050514;28;19905;-74
2024/03/12 02:35:15;;;;;;;;;;;9.30;99.90;;;;;;5049888;28;19923;-74
2024/03/12 02:37:40;;;;;;;;;;;9.30;99.90;;;;;;5050212;28;19908;-74
2024/03/12 02:40:09;;;;;;;;;;;9.30;99.90;;;;;;5049889;28;19916;-74
2024/03/12 02:42:36;;;;;;;;;;;9.30;99.90;;;;;;5049705;28;20007;-74
2024/03/12 02:45:01;;;;;;;;;;;9.30;99.90;;;;;;5049751;28;20324;-74
2024/03/12 02:47:27;;;;;;;;;;;9.40;99.90;;;;;;5051127;28;19962;-74
2024/03/12 02:49:52;;;;;;;;;;;9.30;99.90;;;;;;5049870;28;19916;-73
2024/03/12 02:52:18;;;;;;;;;;;9.40;99.90;;;;;;5049546;28;20050;-73
2024/03/12 02:54:43;;;;;;;;;;;9.40;99.90;;;;;;5050393;28;19904;-74
2024/03/12 02:57:09;;;;;;;;;;;9.30;99.90;;;;;;5049471;28;19966;-75
2024/03/12 02:59:35;;;;;;;;;;;9.30;99.90;;;;;;5049546;28;19952;-74
2024/03/12 03:02:00;;;;;;;;;;;9.30;99.90;;;;;;5050714;28;19967;-73
2024/03/12 03:04:27;;;;;;;;;;;9.30;99.90;;;;;;5049396;28;19960;-75
2024/03/12 03:06:53;;;;;;;;;;;9.30;99.90;;;;;;5049333;28;19983;-75
2024/03/12 03:09:18;;;;;;;;;;;9.30;99.90;;;;;;5050759;28;20407;-74
2024/03/12 03:11:44;;;;;;;;;;;9.20;99.90;;;;;;5050698;28;19904;-74
2024/03/12 03:14:10;;;;;;;;;;;9.20;99.90;;;;;;5050823;28;19904;-74
2024/03/12 03:16:36;;;;;;;;;;;9.20;99.90;;;;;;5049349;28;19980;-75
2024/03/12 03:19:01;;;;;;;;;;;9.20;99.90;;;;;;5049093;28;19904;-73
2024/03/12 03:21:27;;;;;;;;;;;9.10;99.90;;;;;;5052818;28;19913;-75
2024/03/12 03:23:52;;;;;;;;;;;9.10;99.90;;;;;;5053648;28;19909;-73
2024/03/12 03:26:18;;;;;;;;;;;9.10;99.90;;;;;;5050567;28;19955;-73
2024/03/12 03:28:44;;;;;;;;;;;9.00;99.90;;;;;;5052260;28;20285;-75
2024/03/12 03:31:10;;;;;;;;;;;9.00;99.90;;;;;;5051492;28;20344;-77
2024/03/12 03:33:43;;;;;;;;;;;9.00;99.90;;;;;;5051486;28;20332;-74
2024/03/12 03:36:09;;;;;;;;;;;9.00;99.90;;;;;;5049282;28;19908;-74
2024/03/12 03:38:39;;;;;;;;;;;9.00;99.90;;;;;;5052308;28;19974;-75
2024/03/12 03:41:06;;;;;;;;;;;8.90;99.90;;;;;;5049310;28;19912;-73
2024/03/12 03:43:32;;;;;;;;;;;8.90;99.90;;;;;;5050078;28;20358;-74
2024/03/12 03:45:57;;;;;;;;;;;8.90;99.90;;;;;;5049148;28;20011;-74
2024/03/12 03:48:23;;;;;;;;;;;8.90;99.90;;;;;;5050004;28;19908;-75
2024/03/12 03:50:49;;;;;;;;;;;8.90;99.90;;;;;;5049021;28;20023;-75
2024/03/12 03:53:15;;;;;;;;;;;8.90;99.90;;;;;;5048646;28;19955;-74
2024/03/12 03:55:40;;;;;;;;;;;8.90;99.90;;;;;;5048726;28;19908;-74
2024/03/12 03:58:06;;;;;;;;;;;8.90;99.90;;;;;;5050150;28;19908;-74
2024/03/12 04:00:35;;;;;;;;;;;8.90;99.90;;;;;;5050141;28;20369;-75
2024/03/12 04:03:02;;;;;;;;;;;8.90;99.90;;;;;;5050070;28;19912;-75
2024/03/12 04:05:28;;;;;;;;;;;8.90;99.90;;;;;;5048432;28;19959;-74
2024/03/12 04:07:54;;;;;;;;;;;8.90;99.90;;;;;;5049116;28;20003;-75
2024/03/12 04:10:22;;;;;;;;;;;8.90;99.90;;;;;;5049863;28;20002;-75
2024/03/12 04:12:48;;;;;;;;;;;8.90;99.90;;;;;;5049860;28;20396;-75
2024/03/12 04:15:14;;;;;;;;;;;8.90;99.90;;;;;;5049793;28;19916;-74
2024/03/12 04:17:42;;;;;;;;;;;9.00;99.90;;;;;;5048323;28;19908;-75
2024/03/12 04:20:10;;;;;;;;;;;8.80;99.90;;;;;;5048545;28;19951;-75
2024/03/12 04:22:36;;;;;;;;;;;8.90;99.90;;;;;;5048372;28;19923;-74
2024/03/12 04:25:04;;;;;;;;;;;8.80;99.90;;;;;;5048311;28;19958;-74
2024/03/12 04:27:29;;;;;;;;;;;8.90;99.90;;;;;;5049744;28;19909;-74
2024/03/12 04:29:55;;;;;;;;;;;8.80;99.90;;;;;;5048540;28;20396;-73
2024/03/12 04:32:20;;;;;;;;;;;8.80;99.90;;;;;;5049586;28;19909;-75
2024/03/12 04:34:46;;;;;;;;;;;8.80;99.90;;;;;;5048053;28;19952;-74
2024/03/12 04:37:12;;;;;;;;;;;8.80;99.90;;;;;;5048327;28;20015;-74
2024/03/12 04:39:38;;;;;;;;;;;8.80;99.90;;;;;;5048317;28;19994;-74
2024/03/12 04:42:07;;;;;;;;;;;8.70;99.90;;;;;;5049494;28;19917;-74
2024/03/12 04:44:32;;;;;;;;;;;8.70;99.90;;;;;;5048349;28;19920;-74
2024/03/12 04:46:58;;;;;;;;;;;8.60;99.90;;;;;;5049632;28;19909;-75
2024/03/12 04:49:25;;;;;;;;;;;8.60;99.90;;;;;;5049643;28;19944;-75
2024/03/12 04:51:50;;;;;;;;;;;8.60;99.90;;;;;;5048229;28;19908;-75
2024/03/12 04:54:17;;;;;;;;;;;8.60;99.90;;;;;;5048037;28;19905;-74
2024/03/12 04:56:43;;;;;;;;;;;8.50;99.90;;;;;;5048110;28;19917;-73
2024/03/12 04:59:09;;;;;;;;;;;8.50;99.90;;;;;;5053294;28;20377;-77
2024/03/12 05:01:34;;;;;;;;;;;8.50;99.90;;;;;;5053452;28;19916;-75
2024/03/12 05:04:00;;;;;;;;;;;8.40;99.90;;;;;;5050053;28;19908;-74
2024/03/12 05:06:26;;;;;;;;;;;8.50;99.90;;;;;;5049492;28;19939;-73
2024/03/12 05:08:53;;;;;;;;;;;8.50;99.90;;;;;;5049171;28;20430;-72
2024/03/12 05:11:19;;;;;;;;;;;8.40;99.90;;;;;;5047981;28;20012;-74
2024/03/12 05:13:44;;;;;;;;;;;8.50;99.90;;;;;;5047547;28;19951;-73
2024/03/12 05:16:10;;;;;;;;;;;8.50;99.90;;;;;;5049160;28;19908;-74
2024/03/12 05:18:36;;;;;;;;;;;8.50;99.90;;;;;;5051145;28;20415;-75
2024/03/12 05:21:01;;;;;;;;;;;8.50;99.90;;;;;;5052698;28;19905;-74
2024/03/12 05:23:27;;;;;;;;;;;8.50;99.90;;;;;;5051459;28;20301;-73
2024/03/12 05:25:54;;;;;;;;;;;8.60;99.90;;;;;;5051011;28;19909;-74
2024/03/12 05:28:20;;;;;;;;;;;8.60;99.90;;;;;;5052654;28;20293;-74
2024/03/12 05:30:46;;;;;;;;;;;8.60;99.90;;;;;;5052506;28;20263;-74
2024/03/12 05:33:15;;;;;;;;;;;8.60;99.90;;;;;;5052530;28;19908;-75
2024/03/12 05:35:51;;;;;;;;;;;8.60;99.90;;;;;;5051105;28;20301;-74
2024/03/12 05:38:33;;;;;;;;;;;8.60;99.90;;;;;;5052727;28;19905;-74
2024/03/12 05:48:58;;;;;;;;;;;8.60;99.90;;;;;;5052359;28;19963;-74
2024/03/12 05:51:24;;;;;;;;;;;8.50;99.90;;;;;;5052100;28;19909;-74
2024/03/12 05:53:50;;;;;;;;;;;8.40;99.90;;;;;;5050679;28;20472;-74
2024/03/12 05:56:16;;;;;;;;;;;8.50;99.90;;;;;;5050548;28;19909;-74
2024/03/12 05:58:41;;;;;;;;;;;8.50;99.90;;;;;;5050785;28;19956;-75
2024/03/12 06:01:07;;;;;;;;;;;8.40;99.90;;;;;;5051749;28;19952;-73
2024/03/12 06:03:35;;;;;;;;;;;8.50;99.90;;;;;;5052040;28;19916;-75
2024/03/12 06:06:04;;;;;;;;;;;8.50;99.90;;;;;;5050344;28;20307;-75
2024/03/12 06:08:33;;;;;;;;;;;8.60;99.90;;;;;;5050237;28;19909;-74
2024/03/12 06:10:58;;;;;;;;;;;8.60;99.90;;;;;;5050525;28;19963;-74
2024/03/12 06:13:24;;;;;;;;;;;8.60;99.90;;;;;;5051931;28;20315;-74
2024/03/12 06:15:50;;;;;;;;;;;8.80;99.90;;;;;;5051851;28;20011;-74
2024/03/12 06:18:18;;;;;;;;;;;8.90;99.90;;;;;;5050145;28;20357;-73
2024/03/12 06:20:46;;;;;;;;;;;8.90;99.90;;;;;;5051621;28;19958;-75
2024/03/12 06:23:13;;;;;;;;;;;9.10;99.90;;;;;;5051600;28;20301;-75
2024/03/12 06:25:39;;;;;;;;;;;9.30;99.90;;;;;;5050137;28;19928;-75
2024/03/12 06:28:07;;;;;;;;;;;9.50;99.90;;;;;;5051445;28;19920;-75
2024/03/12 06:30:35;;;;;;;;;;;9.70;99.90;;;;;;5050736;28;20289;-75
2024/03/12 06:33:04;;;;;;;;;;;9.90;99.90;;;;;;5050066;28;19927;-75
2024/03/12 06:35:29;;;;;;;;;;;10.10;99.90;;;;;;5051101;28;19924;-74
2024/03/12 06:37:55;;;;;;;;;;;10.10;99.90;;;;;;5051160;28;19916;-74
2024/03/12 06:40:25;;;;;;;;;;;10.20;99.90;;;;;;5049982;28;19908;-73
2024/03/12 06:42:55;;;;;;;;;;;10.30;99.90;;;;;;5052389;28;19928;-74
2024/03/12 06:45:21;;;;;;;;;;;10.50;99.90;;;;;;5050684;28;19990;-73
2024/03/12 06:47:48;;;;;;;;;;;10.70;99.90;;;;;;5051539;28;20309;-73
2024/03/12 06:50:14;;;;;;;;;;;10.70;99.90;;;;;;5052022;28;19932;-76
2024/03/12 06:52:41;;;;;;;;;;;10.90;99.90;;;;;;5049950;28;19905;-74
2024/03/12 06:55:12;;;;;;;;;;;11.20;99.90;;;;;;5049758;28;19905;-74
2024/03/12 06:57:51;;;;;;;;;;;11.40;99.90;;;;;;5049530;28;19959;-74
2024/03/12 07:00:32;;;;;;;;;;;11.80;99.90;;;;;;5050994;28;19915;-73
2024/03/12 07:02:58;;;;;;;;;;;12.40;99.90;;;;;;5050923;28;19917;-74
2024/03/12 07:05:29;;;;;;;;;;;12.90;99.90;;;;;;5049441;28;19904;-74
2024/03/12 07:07:54;;;;;;;;;;;13.30;99.90;;;;;;5050661;28;20385;-74
2024/03/12 07:10:22;;;;;;;;;;;13.60;99.90;;;;;;5049458;28;19909;-73
2024/03/12 07:12:48;;;;;;;;;;;13.90;99.90;;;;;;5049340;28;20066;-73
2024/03/12 07:15:14;;;;;;;;;;;14.30;99.90;;;;;;5050466;28;19991;-71
2024/03/12 07:17:39;;;;;;;;;;;14.80;99.90;;;;;;5050262;28;19908;-73
2024/03/12 07:20:10;;;;;;;;;;;15.30;99.90;;;;;;5050497;28;19915;-74
2024/03/12 07:22:40;;;;;;;;;;;15.90;99.90;;;;;;5050133;28;20014;-73
2024/03/12 07:25:06;;;;;;;;;;;16.30;99.90;;;;;;5050279;28;19905;-73
2024/03/12 07:27:31;;;;;;;;;;;16.80;99.10;;;;;;5050411;28;20065;-75
2024/03/12 07:29:58;;;;;;;;;;;17.30;93.00;;;;;;5050453;28;19915;-74
2024/03/12 07:32:24;;;;;;;;;;;17.60;79.50;;;;;;5048900;28;19966;-74
2024/03/12 07:34:49;;;;;;;;;;;17.80;71.30;;;;;;5050048;28;19959;-73
2024/03/12 07:37:17;;;;;;;;;;;17.90;70.20;;;;;;5048883;28;19912;-74
2024/03/12 07:39:43;;;;;;;;;;;17.70;72.30;;;;;;5048739;28;19913;-75
2024/03/12 07:42:18;;;;;;;;;;;17.30;76.70;;;;;;5049117;28;19917;-74
2024/03/12 07:44:47;;;;;;;;;;;17.00;81.70;;;;;;5050255;28;20011;-72
2024/03/12 07:47:16;;;;;;;;;;;16.70;86.80;;;;;;5050107;28;19912;-74
2024/03/12 07:49:41;;;;;;;;;;;16.60;90.80;;;;;;5050148;28;19954;-75
2024/03/12 07:52:09;;;;;;;;;;;16.40;92.70;;;;;;5048567;28;19909;-71
2024/03/12 07:54:34;;;;;;;;;;;16.20;95.20;;;;;;5050068;28;19905;-71
2024/03/12 07:57:00;;;;;;;;;;;16.00;96.50;;;;;;5049901;28;19909;-72
2024/03/12 07:59:28;;;;;;;;;;;15.90;95.70;;;;;;5049930;28;20485;-72
2024/03/12 08:01:54;;;;;;;;;;;15.80;95.20;;;;;;5048325;28;19923;-73
2024/03/12 08:04:26;;;;;;;;;;;15.60;96.40;;;;;;5049879;28;19999;-72
2024/03/12 08:06:52;;;;;;;;;;;15.60;96.30;;;;;;5049750;28;20380;-72
2024/03/12 08:09:21;;;;;;;;;;;15.90;96.40;;;;;;5048419;28;19905;-74
2024/03/12 08:11:47;;;;;;;;;;;16.30;93.20;;;;;;5049677;28;19908;-74
2024/03/12 08:14:13;;;;;;;;;;;16.60;91.30;;;;;;5049351;28;19905;-74
2024/03/12 08:16:42;;;;;;;;;;;16.90;90.00;;;;;;5048327;28;20320;-75
2024/03/12 08:19:10;;;;;;;;;;;17.00;85.70;;;;;;5049522;28;19905;-73
2024/03/12 08:21:37;;;;;;;;;;;17.10;87.30;;;;;;5049322;28;19918;-75
2024/03/12 08:24:02;;;;;;;;;;;17.20;82.10;;;;;;5048110;28;19905;-74
2024/03/12 08:26:28;;;;;;;;;;;17.50;83.60;;;;;;5048307;28;19915;-74
2024/03/12 08:28:55;;;;;;;;;;;18.00;81.00;;;;;;5049437;28;20535;-74
2024/03/12 08:31:22;;;;;;;;;;;18.50;74.90;;;;;;5049615;28;19927;-74
2024/03/12 08:33:47;;;;;;;;;;;18.50;72.00;;;;;;5048013;28;19917;-74
2024/03/12 08:36:13;;;;;;;;;;;18.40;70.40;;;;;;5049468;28;19924;-74
2024/03/12 08:38:38;;;;;;;;;;;18.40;70.30;;;;;;5048192;28;19909;-74
2024/03/12 08:41:04;;;;;;;;;;;18.20;75.10;;;;;;5049444;28;19908;-74
2024/03/12 08:43:29;;;;;;;;;;;18.10;71.50;;;;;;5049357;28;19909;-75
2024/03/12 08:45:55;;;;;;;;;;;18.00;72.40;;;;;;5047875;28;20042;-73
2024/03/12 08:48:21;;;;;;;;;;;18.00;69.70;;;;;;5047930;28;19964;-74
2024/03/12 08:50:47;;;;;;;;;;;17.70;62.40;;;;;;5049292;28;20377;-74
2024/03/12 08:53:12;;;;;;;;;;;17.50;62.30;;;;;;5050007;28;19915;-74
2024/03/12 08:55:38;;;;;;;;;;;17.40;66.10;;;;;;5053255;28;19912;-75
2024/03/12 08:58:04;;;;;;;;;;;17.20;61.00;;;;;;5053287;28;19904;-74
2024/03/12 09:00:30;;;;;;;;;;;17.00;59.40;;;;;;5051480;28;19911;-75
2024/03/12 09:02:56;;;;;;;;;;;16.90;62.70;;;;;;5051374;28;19916;-73
2024/03/12 09:05:21;;;;;;;;;;;16.60;64.50;;;;;;5052743;28;19911;-74
2024/03/12 09:07:48;;;;;;;;;;;16.60;66.50;;;;;;5052742;28;19908;-73
2024/03/12 09:10:13;;;;;;;;;;;16.80;67.60;;;;;;5052782;28;19908;-74
2024/03/12 09:12:40;;;;;;;;;;;17.20;65.80;;;;;;5052708;28;19915;-74
2024/03/12 09:15:08;;;;;;;;;;;17.50;62.60;;;;;;5052998;28;19904;-74
2024/03/12 09:17:34;;;;;;;;;;;17.70;63.70;;;;;;5052583;28;19913;-74
2024/03/12 09:20:00;;;;;;;;;;;17.90;63.40;;;;;;5052807;28;20367;-74
2024/03/12 09:22:26;;;;;;;;;;;17.90;65.40;;;;;;5051288;28;20419;-74
2024/03/12 09:24:51;;;;;;;;;;;17.90;56.90;;;;;;5052602;28;19911;-75
2024/03/12 09:27:17;;;;;;;;;;;17.70;59.40;;;;;;5051249;28;19915;-73
2024/03/12 09:29:42;;;;;;;;;;;17.40;65.80;;;;;;5052539;28;19916;-74
2024/03/12 09:32:08;;;;;;;;;;;17.30;64.70;;;;;;5051451;28;19908;-74
2024/03/12 09:34:36;;;;;;;;;;;17.10;65.70;;;;;;5050989;28;20003;-74
2024/03/12 09:37:02;;;;;;;;;;;17.10;65.40;;;;;;5052421;28;20003;-74
2024/03/12 09:39:30;;;;;;;;;;;16.70;66.50;;;;;;5051095;28;20006;-74
2024/03/12 09:41:56;;;;;;;;;;;16.40;66.70;;;;;;5052228;28;20285;-74
2024/03/12 09:44:22;;;;;;;;;;;16.00;67.20;;;;;;5052193;28;19916;-72
2024/03/12 09:46:47;;;;;;;;;;;15.40;71.80;;;;;;5051086;28;19908;-71
2024/03/12 09:49:14;;;;;;;;;;;14.90;78.50;;;;;;5052246;28;19913;-71
2024/03/12 09:51:40;;;;;;;;;;;14.60;85.30;;;;;;5052030;28;19908;-72
2024/03/12 09:54:06;;;;;;;;;;;14.40;91.10;;;;;;5052018;28;19909;-72
2024/03/12 09:56:33;;;;;;;;;;;14.40;91.70;;;;;;5050872;28;19970;-72
2024/03/12 09:58:59;;;;;;;;;;;14.40;93.70;;;;;;5050460;28;20326;-73
2024/03/12 10:01:25;;;;;;;;;;;14.60;93.30;;;;;;5051871;28;19915;-71
2024/03/12 10:03:53;;;;;;;;;;;14.70;93.90;;;;;;5050412;28;19904;-72
2024/03/12 10:06:18;;;;;;;;;;;14.50;93.80;;;;;;5050011;28;19909;-72
2024/03/12 10:08:44;;;;;;;;;;;14.40;94.20;;;;;;5052119;28;19954;-73
2024/03/12 10:11:09;;;;;;;;;;;14.20;95.90;;;;;;5052083;28;20396;-74
2024/03/12 10:13:36;;;;;;;;;;;14.10;96.30;;;;;;5051644;28;19915;-73
2024/03/12 10:16:03;;;;;;;;;;;14.00;96.20;;;;;;5050704;28;19909;-72
2024/03/12 10:18:29;;;;;;;;;;;13.90;97.80;;;;;;5046376;28;19904;-72
2024/03/12 10:20:56;;;;;;;;;;;13.80;98.40;;;;;;5050134;28;19905;-72
2024/03/12 10:23:23;;;;;;;;;;;13.80;99.90;;;;;;5051616;28;19998;-72
2024/03/12 10:25:51;;;;;;;;;;;13.80;99.90;;;;;;5050329;28;19909;-72
2024/03/12 10:28:27;;;;;;;;;;;13.80;99.90;;;;;;5051441;28;19904;-73
2024/03/12 10:30:53;;;;;;;;;;;13.80;99.90;;;;;;5050393;28;20380;-73
2024/03/12 10:33:20;;;;;;;;;;;13.70;99.90;;;;;;5050362;28;19913;-73
2024/03/12 10:35:46;;;;;;;;;;;13.60;99.90;;;;;;5049948;28;20443;-73
2024/03/12 10:38:13;;;;;;;;;;;13.50;99.90;;;;;;5051194;28;19904;-72
2024/03/12 10:40:39;;;;;;;;;;;13.40;99.90;;;;;;5051365;28;19939;-73
2024/03/12 10:43:06;;;;;;;;;;;13.30;99.90;;;;;;5050792;28;19921;-72
2024/03/12 10:45:32;;;;;;;;;;;13.30;99.90;;;;;;5049582;28;19947;-72
2024/03/12 10:47:59;;;;;;;;;;;13.40;99.90;;;;;;5050979;28;19987;-73
2024/03/12 10:50:25;;;;;;;;;;;13.60;99.90;;;;;;5050499;28;19928;-73
2024/03/12 10:52:54;;;;;;;;;;;13.90;99.90;;;;;;5049432;28;19909;-73
2024/03/12 10:55:25;;;;;;;;;;;14.30;99.90;;;;;;5050707;28;19955;-73
2024/03/12 10:57:53;;;;;;;;;;;14.60;98.50;;;;;;5050453;28;19959;-73
2024/03/12 11:00:25;;;;;;;;;;;14.70;97.60;;;;;;5050408;28;19908;-73
2024/03/12 11:02:52;;;;;;;;;;;14.70;95.50;;;;;;5049233;28;19912;-72
2024/03/12 11:05:21;;;;;;;;;;;14.50;94.50;;;;;;5050512;28;19968;-73
2024/03/12 11:07:50;;;;;;;;;;;14.40;96.70;;;;;;5050586;28;19951;-73
2024/03/12 11:10:17;;;;;;;;;;;14.30;96.30;;;;;;5050623;28;19905;-73
2024/03/12 11:12:43;;;;;;;;;;;14.20;95.60;;;;;;5048902;28;19909;-73
2024/03/12 11:15:09;;;;;;;;;;;14.30;95.40;;;;;;5050619;28;19909;-73
2024/03/12 11:17:37;;;;;;;;;;;14.20;96.80;;;;;;5049191;28;19908;-73
2024/03/12 11:20:06;;;;;;;;;;;14.20;96.00;;;;;;5044968;28;19999;-73
2024/03/12 11:22:35;;;;;;;;;;;14.30;97.50;;;;;;5049285;28;19955;-73
2024/03/12 11:25:04;;;;;;;;;;;14.20;96.60;;;;;;5049213;28;19916;-72
2024/03/12 11:27:31;;;;;;;;;;;14.10;97.80;;;;;;5049208;28;19913;-73
2024/03/12 11:30:11;;;;;;;;;;;14.00;99.70;;;;;;5050628;28;19916;-74
2024/03/12 11:32:48;;;;;;;;;;;13.90;99.60;;;;;;5048973;28;19912;-74
2024/03/12 11:35:17;;;;;;;;;;;13.70;99.90;;;;;;5050094;28;19927;-73
2024/03/12 11:37:46;;;;;;;;;;;13.60;99.90;;;;;;5048645;28;19992;-72
2024/03/12 11:40:27;;;;;;;;;;;13.50;99.90;;;;;;5050041;28;19955;-73
2024/03/12 11:42:56;;;;;;;;;;;13.40;99.90;;;;;;5048507;28;19912;-73
2024/03/12 11:45:42;;;;;;;;;;;13.30;99.90;;;;;;5050193;28;20373;-73
2024/03/12 11:48:08;;;;;;;;;;;13.10;99.90;;;;;;5048150;28;20379;-73
2024/03/12 11:50:36;;;;;;;;;;;13.10;99.90;;;;;;5048562;28;19959;-72
2024/03/12 11:53:17;;;;;;;;;;;13.00;99.90;;;;;;5049827;28;19904;-73
2024/03/12 11:55:57;;;;;;;;;;;12.90;99.90;;;;;;5049750;28;19905;-75
2024/03/12 11:58:26;;;;;;;;;;;12.90;99.90;;;;;;5049633;28;19982;-73
2024/03/12 12:00:52;;;;;;;;;;;12.80;99.90;;;;;;5049883;28;19908;-72
2024/03/12 12:03:17;;;;;;;;;;;12.80;99.90;;;;;;5050151;28;20383;-75
2024/03/12 12:05:46;;;;;;;;;;;12.70;99.90;;;;;;5048283;28;20424;-73
2024/03/12 12:08:14;;;;;;;;;;;12.70;99.90;;;;;;5048505;28;19905;-73
2024/03/12 12:10:41;;;;;;;;;;;12.60;99.90;;;;;;5049876;28;19955;-73
2024/03/12 12:13:15;;;;;;;;;;;12.70;99.90;;;;;;5048310;28;19908;-72
2024/03/12 12:15:54;;;;;;;;;;;12.80;99.90;;;;;;5049648;28;19911;-73
2024/03/12 12:18:19;;;;;;;;;;;12.90;99.90;;;;;;5049581;28;19987;-72
2024/03/12 12:20:45;;;;;;;;;;;13.00;99.90;;;;;;5048334;28;20003;-73
2024/03/12 12:23:13;;;;;;;;;;;13.00;99.90;;;;;;5042547;28;19913;-73
2024/03/12 12:25:38;;;;;;;;;;;13.10;99.90;;;;;;5048001;28;19912;-73
2024/03/12 12:28:07;;;;;;;;;;;13.20;99.90;;;;;;5049614;28;19909;-73
2024/03/12 12:30:35;;;;;;;;;;;13.40;99.90;;;;;;5053533;28;19913;-73
2024/03/12 12:33:01;;;;;;;;;;;13.60;99.90;;;;;;5052258;28;19962;-72
2024/03/12 12:35:28;;;;;;;;;;;13.80;99.80;;;;;;5051960;28;19921;-73
2024/03/12 12:37:54;;;;;;;;;;;14.10;99.60;;;;;;5052065;28;20328;-73
2024/03/12 12:40:20;;;;;;;;;;;14.30;98.20;;;;;;5052194;28;19905;-72
2024/03/12 12:42:53;;;;;;;;;;;14.40;94.60;;;;;;5051773;28;20617;-73
2024/03/12 12:45:18;;;;;;;;;;;14.40;93.50;;;;;;5053334;28;19908;-73
2024/03/12 12:47:50;;;;;;;;;;;14.40;94.30;;;;;;5051929;28;19958;-72
2024/03/12 12:50:29;;;;;;;;;;;14.30;94.90;;;;;;5051833;28;19958;-73
2024/03/12 12:52:56;;;;;;;;;;;14.20;94.50;;;;;;5051740;28;19915;-73
2024/03/12 12:55:21;;;;;;;;;;;14.10;94.50;;;;;;5051914;28;19996;-73
2024/03/12 12:57:56;;;;;;;;;;;14.00;94.40;;;;;;5052833;28;20409;-73
2024/03/12 13:00:23;;;;;;;;;;;13.80;94.00;;;;;;5051319;28;19909;-73
2024/03/12 13:02:48;;;;;;;;;;;13.70;96.00;;;;;;5052996;28;20292;-73
2024/03/12 13:05:21;;;;;;;;;;;13.70;97.50;;;;;;5051617;28;19905;-73
2024/03/12 13:07:46;;;;;;;;;;;13.70;97.30;;;;;;5051452;28;19986;-72
2024/03/12 13:10:18;;;;;;;;;;;13.70;98.40;;;;;;5051529;28;20365;-72
2024/03/12 13:12:48;;;;;;;;;;;13.70;98.80;;;;;;5052933;28;19912;-73
2024/03/12 13:15:27;;;;;;;;;;;13.80;97.70;;;;;;5052952;28;19935;-73
2024/03/12 13:17:52;;;;;;;;;;;13.90;97.70;;;;;;5051453;28;19936;-73
2024/03/12 13:20:21;;;;;;;;;;;14.10;98.00;;;;;;5051202;28;19947;-73
2024/03/12 13:22:48;;;;;;;;;;;14.10;97.30;;;;;;5051507;28;20345;-73
2024/03/12 13:25:15;;;;;;;;;;;14.20;96.10;;;;;;5053284;28;20262;-71
2024/03/12 13:27:41;;;;;;;;;;;14.20;94.90;;;;;;5052805;28;19905;-73
2024/03/12 13:30:08;;;;;;;;;;;14.10;94.00;;;;;;5051398;28;19905;-73
2024/03/12 13:32:34;;;;;;;;;;;14.00;94.30;;;;;;5052471;28;19904;-73
2024/03/12 13:34:59;;;;;;;;;;;14.10;95.40;;;;;;5050304;28;19963;-72
2024/03/12 13:37:26;;;;;;;;;;;14.10;95.70;;;;;;5051939;28;19995;-73
2024/03/12 13:39:52;;;;;;;;;;;14.10;96.00;;;;;;5050551;28;20608;-72
2024/03/12 13:42:18;;;;;;;;;;;14.20;95.20;;;;;;5051808;28;19971;-73
2024/03/12 13:44:43;;;;;;;;;;;14.10;95.30;;;;;;5052146;28;19912;-74
2024/03/12 13:47:09;;;;;;;;;;;14.20;95.50;;;;;;5052108;28;19915;-72
2024/03/12 13:49:34;;;;;;;;;;;14.20;94.90;;;;;;5050248;28;19915;-74
2024/03/12 13:52:00;;;;;;;;;;;14.10;94.40;;;;;;5051423;28;19913;-73
2024/03/12 13:54:27;;;;;;;;;;;14.10;95.40;;;;;;5051661;28;19955;-73
2024/03/12 13:56:52;;;;;;;;;;;14.10;94.80;;;;;;5051853;28;19908;-72
2024/03/12 13:59:18;;;;;;;;;;;14.10;94.30;;;;;;5050205;28;19908;-73
2024/03/12 14:01:46;;;;;;;;;;;14.10;94.10;;;;;;5050182;28;19916;-73
2024/03/12 14:04:13;;;;;;;;;;;14.10;91.30;;;;;;5050501;28;20328;-73
2024/03/12 14:06:39;;;;;;;;;;;14.10;90.70;;;;;;5050436;28;20297;-73
2024/03/12 14:09:11;;;;;;;;;;;14.00;91.20;;;;;;5051662;28;19912;-72
2024/03/12 14:11:40;;;;;;;;;;;14.00;92.00;;;;;;5050488;28;20391;-73
2024/03/12 14:14:08;;;;;;;;;;;14.00;91.70;;;;;;5051516;28;19908;-72
2024/03/12 14:16:34;;;;;;;;;;;14.00;92.70;;;;;;5051474;28;20001;-72
2024/03/12 14:18:59;;;;;;;;;;;13.90;93.20;;;;;;5049962;28;19909;-73
2024/03/12 14:21:25;;;;;;;;;;;13.90;93.40;;;;;;5050476;28;19916;-72
2024/03/12 14:23:52;;;;;;;;;;;13.90;94.20;;;;;;5051365;28;19912;-73
2024/03/12 14:26:18;;;;;;;;;;;13.90;94.70;;;;;;5051323;28;19908;-71
2024/03/12 14:28:45;;;;;;;;;;;14.10;95.30;;;;;;5051327;28;20297;-72